sensor_id;sensor_type;location;lat;lon;timestamp;P1;durP1;ratioP1;P2;durP2;ratioP2
10122;SDS011;5101;49.038;8.710;2023-07-13T00:01:11;2.50;;;1.02;;
10122;SDS011;5101;49.038;8.710;2023-07-13T00:03:37;3.40;;;0.70;;
10122;SDS011;5101;49.038;8.710;2023-07-13T00:06:02;3.22;;;0.85;;
10122;SDS011;5101;49.038;8.710;2023-07-13T00:08:30;2.13;;;0.77;;
10122;SDS011;5101;49.038;8.710;2023-07-13T00:10:57;4.47;;;1.10;;
10122;SDS011;5101;49.038;8.710;2023-07-13T00:13:23;1.50;;;0.70;;
10122;SDS011;5101;49.038;8.710;2023-07-13T00:15:49;1.17;;;0.77;;
10122;SDS011;5101;49.038;8.710;2023-07-13T00:18:14;2.70;;;0.70;;
10122;SDS011;5101;49.038;8.710;2023-07-13T00:20:40;1.40;;;0.80;;
10122;SDS011;5101;49.038;8.710;2023-07-13T00:23:06;4.55;;;1.10;;
10122;SDS011;5101;49.038;8.710;2023-07-13T00:25:32;4.22;;;0.90;;
10122;SDS011;5101;49.038;8.710;2023-07-13T00:27:57;0.93;;;0.75;;
10122;SDS011;5101;49.038;8.710;2023-07-13T00:30:23;1.80;;;0.70;;
10122;SDS011;5101;49.038;8.710;2023-07-13T00:32:48;0.88;;;0.80;;
10122;SDS011;5101;49.038;8.710;2023-07-13T00:35:15;3.78;;;1.00;;
10122;SDS011;5101;49.038;8.710;2023-07-13T00:37:41;1.08;;;0.82;;
10122;SDS011;5101;49.038;8.710;2023-07-13T00:40:07;3.15;;;1.10;;
10122;SDS011;5101;49.038;8.710;2023-07-13T00:42:34;4.40;;;0.82;;
10122;SDS011;5101;49.038;8.710;2023-07-13T00:45:00;3.08;;;0.80;;
10122;SDS011;5101;49.038;8.710;2023-07-13T00:47:27;1.17;;;0.60;;
10122;SDS011;5101;49.038;8.710;2023-07-13T00:49:53;3.13;;;0.63;;
10122;SDS011;5101;49.038;8.710;2023-07-13T00:52:18;2.28;;;0.75;;
10122;SDS011;5101;49.038;8.710;2023-07-13T00:54:45;5.13;;;0.80;;
10122;SDS011;5101;49.038;8.710;2023-07-13T00:57:16;0.85;;;0.77;;
10122;SDS011;5101;49.038;8.710;2023-07-13T00:59:46;2.13;;;0.70;;
10122;SDS011;5101;49.038;8.710;2023-07-13T01:02:13;2.58;;;0.90;;
10122;SDS011;5101;49.038;8.710;2023-07-13T01:04:39;3.50;;;0.70;;
10122;SDS011;5101;49.038;8.710;2023-07-13T01:07:09;2.97;;;0.70;;
10122;SDS011;5101;49.038;8.710;2023-07-13T01:09:35;2.00;;;0.93;;
10122;SDS011;5101;49.038;8.710;2023-07-13T01:12:00;1.00;;;0.80;;
10122;SDS011;5101;49.038;8.710;2023-07-13T01:14:26;1.67;;;0.85;;
10122;SDS011;5101;49.038;8.710;2023-07-13T01:16:52;1.75;;;0.93;;
10122;SDS011;5101;49.038;8.710;2023-07-13T01:22:01;1.40;;;0.88;;
10122;SDS011;5101;49.038;8.710;2023-07-13T01:24:27;2.17;;;0.95;;
10122;SDS011;5101;49.038;8.710;2023-07-13T01:26:53;1.05;;;0.80;;
10122;SDS011;5101;49.038;8.710;2023-07-13T01:29:19;3.97;;;1.38;;
10122;SDS011;5101;49.038;8.710;2023-07-13T01:31:45;1.65;;;0.95;;
10122;SDS011;5101;49.038;8.710;2023-07-13T01:34:11;5.80;;;0.85;;
10122;SDS011;5101;49.038;8.710;2023-07-13T01:36:37;1.17;;;0.80;;
10122;SDS011;5101;49.038;8.710;2023-07-13T01:39:02;1.33;;;1.00;;
10122;SDS011;5101;49.038;8.710;2023-07-13T01:41:28;1.48;;;0.80;;
10122;SDS011;5101;49.038;8.710;2023-07-13T01:43:54;1.48;;;0.80;;
10122;SDS011;5101;49.038;8.710;2023-07-13T01:46:19;1.67;;;0.90;;
10122;SDS011;5101;49.038;8.710;2023-07-13T01:48:45;3.90;;;0.88;;
10122;SDS011;5101;49.038;8.710;2023-07-13T01:51:10;1.35;;;0.90;;
10122;SDS011;5101;49.038;8.710;2023-07-13T01:53:36;2.67;;;1.17;;
10122;SDS011;5101;49.038;8.710;2023-07-13T01:56:01;1.92;;;0.98;;
10122;SDS011;5101;49.038;8.710;2023-07-13T01:58:27;1.92;;;0.90;;
10122;SDS011;5101;49.038;8.710;2023-07-13T02:00:52;2.13;;;0.98;;
10122;SDS011;5101;49.038;8.710;2023-07-13T02:03:18;5.85;;;1.08;;
10122;SDS011;5101;49.038;8.710;2023-07-13T02:05:44;2.15;;;0.90;;
10122;SDS011;5101;49.038;8.710;2023-07-13T02:08:10;1.60;;;0.77;;
10122;SDS011;5101;49.038;8.710;2023-07-13T02:10:36;2.90;;;0.80;;
10122;SDS011;5101;49.038;8.710;2023-07-13T02:13:04;1.17;;;1.00;;
10122;SDS011;5101;49.038;8.710;2023-07-13T02:15:31;2.72;;;1.02;;
10122;SDS011;5101;49.038;8.710;2023-07-13T02:17:56;1.63;;;0.90;;
10122;SDS011;5101;49.038;8.710;2023-07-13T02:20:23;2.35;;;0.80;;
10122;SDS011;5101;49.038;8.710;2023-07-13T02:22:49;3.00;;;1.20;;
10122;SDS011;5101;49.038;8.710;2023-07-13T02:25:15;1.27;;;0.93;;
10122;SDS011;5101;49.038;8.710;2023-07-13T02:27:40;2.92;;;0.90;;
10122;SDS011;5101;49.038;8.710;2023-07-13T02:30:06;1.80;;;0.93;;
10122;SDS011;5101;49.038;8.710;2023-07-13T02:32:35;2.03;;;0.82;;
10122;SDS011;5101;49.038;8.710;2023-07-13T02:35:01;2.83;;;1.00;;
10122;SDS011;5101;49.038;8.710;2023-07-13T02:37:26;1.80;;;0.90;;
10122;SDS011;5101;49.038;8.710;2023-07-13T02:39:52;2.75;;;0.90;;
10122;SDS011;5101;49.038;8.710;2023-07-13T02:42:17;4.35;;;1.00;;
10122;SDS011;5101;49.038;8.710;2023-07-13T02:44:43;1.92;;;0.95;;
10122;SDS011;5101;49.038;8.710;2023-07-13T02:47:08;1.98;;;1.10;;
10122;SDS011;5101;49.038;8.710;2023-07-13T02:49:34;0.90;;;0.90;;
10122;SDS011;5101;49.038;8.710;2023-07-13T02:51:59;1.92;;;1.10;;
10122;SDS011;5101;49.038;8.710;2023-07-13T02:54:25;1.83;;;0.80;;
10122;SDS011;5101;49.038;8.710;2023-07-13T02:56:50;1.77;;;1.08;;
10122;SDS011;5101;49.038;8.710;2023-07-13T02:59:16;2.45;;;1.20;;
10122;SDS011;5101;49.038;8.710;2023-07-13T03:01:41;2.25;;;1.05;;
10122;SDS011;5101;49.038;8.710;2023-07-13T03:04:07;2.78;;;1.10;;
10122;SDS011;5101;49.038;8.710;2023-07-13T03:06:33;2.72;;;1.00;;
10122;SDS011;5101;49.038;8.710;2023-07-13T03:08:59;2.13;;;1.00;;
10122;SDS011;5101;49.038;8.710;2023-07-13T03:11:25;2.92;;;1.30;;
10122;SDS011;5101;49.038;8.710;2023-07-13T03:13:51;1.70;;;0.98;;
10122;SDS011;5101;49.038;8.710;2023-07-13T03:16:17;1.50;;;1.20;;
10122;SDS011;5101;49.038;8.710;2023-07-13T03:18:42;4.50;;;1.20;;
10122;SDS011;5101;49.038;8.710;2023-07-13T03:21:08;2.95;;;1.30;;
10122;SDS011;5101;49.038;8.710;2023-07-13T03:23:34;4.72;;;1.33;;
10122;SDS011;5101;49.038;8.710;2023-07-13T03:26:10;4.57;;;1.20;;
10122;SDS011;5101;49.038;8.710;2023-07-13T03:28:38;1.95;;;1.13;;
10122;SDS011;5101;49.038;8.710;2023-07-13T03:31:08;3.50;;;1.00;;
10122;SDS011;5101;49.038;8.710;2023-07-13T03:33:36;2.50;;;1.08;;
10122;SDS011;5101;49.038;8.710;2023-07-13T03:36:02;4.30;;;1.08;;
10122;SDS011;5101;49.038;8.710;2023-07-13T03:38:29;2.50;;;0.95;;
10122;SDS011;5101;49.038;8.710;2023-07-13T03:40:55;2.00;;;1.08;;
10122;SDS011;5101;49.038;8.710;2023-07-13T03:43:20;2.60;;;1.23;;
10122;SDS011;5101;49.038;8.710;2023-07-13T03:45:46;3.28;;;1.00;;
10122;SDS011;5101;49.038;8.710;2023-07-13T03:48:12;2.05;;;1.10;;
10122;SDS011;5101;49.038;8.710;2023-07-13T03:50:37;1.27;;;1.00;;
10122;SDS011;5101;49.038;8.710;2023-07-13T03:53:03;3.17;;;1.30;;
10122;SDS011;5101;49.038;8.710;2023-07-13T03:55:29;1.52;;;0.98;;
10122;SDS011;5101;49.038;8.710;2023-07-13T03:57:58;3.05;;;1.05;;
10122;SDS011;5101;49.038;8.710;2023-07-13T04:00:25;2.30;;;1.13;;
10122;SDS011;5101;49.038;8.710;2023-07-13T04:02:54;2.10;;;1.10;;
10122;SDS011;5101;49.038;8.710;2023-07-13T04:05:19;1.80;;;1.10;;
10122;SDS011;5101;49.038;8.710;2023-07-13T04:07:45;2.35;;;1.40;;
10122;SDS011;5101;49.038;8.710;2023-07-13T04:10:10;2.22;;;1.08;;
10122;SDS011;5101;49.038;8.710;2023-07-13T04:12:36;3.35;;;1.10;;
10122;SDS011;5101;49.038;8.710;2023-07-13T04:15:01;1.33;;;1.00;;
10122;SDS011;5101;49.038;8.710;2023-07-13T04:17:27;1.83;;;1.30;;
10122;SDS011;5101;49.038;8.710;2023-07-13T04:19:53;3.78;;;1.10;;
10122;SDS011;5101;49.038;8.710;2023-07-13T04:22:18;2.22;;;1.33;;
10122;SDS011;5101;49.038;8.710;2023-07-13T04:24:44;5.68;;;1.48;;
10122;SDS011;5101;49.038;8.710;2023-07-13T04:27:09;4.63;;;1.33;;
10122;SDS011;5101;49.038;8.710;2023-07-13T04:29:35;2.53;;;1.55;;
10122;SDS011;5101;49.038;8.710;2023-07-13T04:32:00;2.30;;;1.23;;
10122;SDS011;5101;49.038;8.710;2023-07-13T04:34:26;2.08;;;1.13;;
10122;SDS011;5101;49.038;8.710;2023-07-13T04:36:51;2.90;;;1.05;;
10122;SDS011;5101;49.038;8.710;2023-07-13T04:39:17;2.25;;;1.20;;
10122;SDS011;5101;49.038;8.710;2023-07-13T04:41:42;3.67;;;0.90;;
10122;SDS011;5101;49.038;8.710;2023-07-13T04:44:08;3.33;;;1.30;;
10122;SDS011;5101;49.038;8.710;2023-07-13T04:46:33;1.63;;;1.10;;
10122;SDS011;5101;49.038;8.710;2023-07-13T04:48:59;5.05;;;1.13;;
10122;SDS011;5101;49.038;8.710;2023-07-13T04:51:25;2.35;;;1.00;;
10122;SDS011;5101;49.038;8.710;2023-07-13T04:53:51;3.72;;;1.30;;
10122;SDS011;5101;49.038;8.710;2023-07-13T04:56:17;2.50;;;1.10;;
10122;SDS011;5101;49.038;8.710;2023-07-13T04:58:42;1.70;;;1.10;;
10122;SDS011;5101;49.038;8.710;2023-07-13T05:01:09;2.05;;;1.30;;
10122;SDS011;5101;49.038;8.710;2023-07-13T05:03:35;2.63;;;1.20;;
10122;SDS011;5101;49.038;8.710;2023-07-13T05:06:02;3.92;;;1.45;;
10122;SDS011;5101;49.038;8.710;2023-07-13T05:08:32;3.05;;;1.50;;
10122;SDS011;5101;49.038;8.710;2023-07-13T05:11:02;3.08;;;1.40;;
10122;SDS011;5101;49.038;8.710;2023-07-13T05:13:29;3.58;;;1.30;;
10122;SDS011;5101;49.038;8.710;2023-07-13T05:15:55;3.72;;;1.10;;
10122;SDS011;5101;49.038;8.710;2023-07-13T05:18:22;1.52;;;0.82;;
10122;SDS011;5101;49.038;8.710;2023-07-13T05:20:54;1.70;;;1.02;;
10122;SDS011;5101;49.038;8.710;2023-07-13T05:23:27;1.83;;;1.15;;
10122;SDS011;5101;49.038;8.710;2023-07-13T05:25:53;4.45;;;1.17;;
10122;SDS011;5101;49.038;8.710;2023-07-13T05:28:19;2.53;;;1.10;;
10122;SDS011;5101;49.038;8.710;2023-07-13T05:30:48;5.68;;;0.90;;
10122;SDS011;5101;49.038;8.710;2023-07-13T05:33:14;5.07;;;1.00;;
10122;SDS011;5101;49.038;8.710;2023-07-13T05:35:40;2.10;;;0.90;;
10122;SDS011;5101;49.038;8.710;2023-07-13T05:38:06;3.03;;;1.38;;
10122;SDS011;5101;49.038;8.710;2023-07-13T05:40:31;1.60;;;1.00;;
10122;SDS011;5101;49.038;8.710;2023-07-13T05:42:57;2.03;;;0.90;;
10122;SDS011;5101;49.038;8.710;2023-07-13T05:45:23;1.95;;;1.30;;
10122;SDS011;5101;49.038;8.710;2023-07-13T05:47:48;1.60;;;1.10;;
10122;SDS011;5101;49.038;8.710;2023-07-13T05:50:14;3.75;;;1.38;;
10122;SDS011;5101;49.038;8.710;2023-07-13T05:52:39;4.72;;;1.50;;
10122;SDS011;5101;49.038;8.710;2023-07-13T05:55:05;2.90;;;1.10;;
10122;SDS011;5101;49.038;8.710;2023-07-13T05:57:30;3.97;;;1.30;;
10122;SDS011;5101;49.038;8.710;2023-07-13T05:59:56;4.28;;;1.10;;
10122;SDS011;5101;49.038;8.710;2023-07-13T06:02:22;4.03;;;1.70;;
10122;SDS011;5101;49.038;8.710;2023-07-13T06:04:48;2.03;;;1.40;;
10122;SDS011;5101;49.038;8.710;2023-07-13T06:07:13;2.53;;;1.02;;
10122;SDS011;5101;49.038;8.710;2023-07-13T06:09:39;3.85;;;1.23;;
10122;SDS011;5101;49.038;8.710;2023-07-13T06:12:05;2.05;;;1.17;;
10122;SDS011;5101;49.038;8.710;2023-07-13T06:14:31;3.65;;;1.10;;
10122;SDS011;5101;49.038;8.710;2023-07-13T06:16:56;4.25;;;1.20;;
10122;SDS011;5101;49.038;8.710;2023-07-13T06:19:22;5.27;;;1.30;;
10122;SDS011;5101;49.038;8.710;2023-07-13T06:21:47;2.90;;;1.37;;
10122;SDS011;5101;49.038;8.710;2023-07-13T06:24:13;3.15;;;0.98;;
10122;SDS011;5101;49.038;8.710;2023-07-13T06:26:38;3.50;;;1.02;;
10122;SDS011;5101;49.038;8.710;2023-07-13T06:29:04;3.13;;;0.80;;
10122;SDS011;5101;49.038;8.710;2023-07-13T06:31:30;3.75;;;1.10;;
10122;SDS011;5101;49.038;8.710;2023-07-13T06:33:55;2.42;;;0.90;;
10122;SDS011;5101;49.038;8.710;2023-07-13T06:36:21;2.50;;;1.40;;
10122;SDS011;5101;49.038;8.710;2023-07-13T06:38:47;8.40;;;1.45;;
10122;SDS011;5101;49.038;8.710;2023-07-13T06:41:12;2.13;;;1.05;;
10122;SDS011;5101;49.038;8.710;2023-07-13T06:43:38;1.73;;;1.23;;
10122;SDS011;5101;49.038;8.710;2023-07-13T06:46:03;1.35;;;1.10;;
10122;SDS011;5101;49.038;8.710;2023-07-13T06:48:29;3.53;;;1.00;;
10122;SDS011;5101;49.038;8.710;2023-07-13T06:50:57;2.60;;;0.95;;
10122;SDS011;5101;49.038;8.710;2023-07-13T06:53:22;2.30;;;1.00;;
10122;SDS011;5101;49.038;8.710;2023-07-13T06:55:48;2.28;;;0.73;;
10122;SDS011;5101;49.038;8.710;2023-07-13T06:58:15;3.72;;;1.10;;
10122;SDS011;5101;49.038;8.710;2023-07-13T07:00:42;1.20;;;0.65;;
10122;SDS011;5101;49.038;8.710;2023-07-13T07:03:07;2.60;;;0.82;;
10122;SDS011;5101;49.038;8.710;2023-07-13T07:05:33;3.33;;;1.08;;
10122;SDS011;5101;49.038;8.710;2023-07-13T07:07:58;3.78;;;1.05;;
10122;SDS011;5101;49.038;8.710;2023-07-13T07:10:24;1.80;;;0.93;;
10122;SDS011;5101;49.038;8.710;2023-07-13T07:12:50;2.90;;;0.70;;
10122;SDS011;5101;49.038;8.710;2023-07-13T07:15:16;2.45;;;0.90;;
10122;SDS011;5101;49.038;8.710;2023-07-13T07:17:43;3.42;;;0.95;;
10122;SDS011;5101;49.038;8.710;2023-07-13T07:20:09;1.40;;;0.80;;
10122;SDS011;5101;49.038;8.710;2023-07-13T07:22:35;2.35;;;0.80;;
10122;SDS011;5101;49.038;8.710;2023-07-13T07:25:01;5.00;;;0.90;;
10122;SDS011;5101;49.038;8.710;2023-07-13T07:27:26;2.70;;;0.90;;
10122;SDS011;5101;49.038;8.710;2023-07-13T07:29:52;2.25;;;0.82;;
10122;SDS011;5101;49.038;8.710;2023-07-13T07:32:18;1.50;;;0.70;;
10122;SDS011;5101;49.038;8.710;2023-07-13T07:34:44;3.17;;;0.80;;
10122;SDS011;5101;49.038;8.710;2023-07-13T07:37:10;2.42;;;0.98;;
10122;SDS011;5101;49.038;8.710;2023-07-13T07:39:37;2.25;;;1.17;;
10122;SDS011;5101;49.038;8.710;2023-07-13T07:42:03;1.50;;;0.80;;
10122;SDS011;5101;49.038;8.710;2023-07-13T07:44:31;2.08;;;0.88;;
10122;SDS011;5101;49.038;8.710;2023-07-13T07:46:56;3.97;;;1.08;;
10122;SDS011;5101;49.038;8.710;2023-07-13T07:49:22;3.22;;;1.15;;
10122;SDS011;5101;49.038;8.710;2023-07-13T07:51:48;2.47;;;1.00;;
10122;SDS011;5101;49.038;8.710;2023-07-13T07:54:14;1.23;;;0.70;;
10122;SDS011;5101;49.038;8.710;2023-07-13T07:56:39;1.92;;;0.75;;
10122;SDS011;5101;49.038;8.710;2023-07-13T07:59:05;2.25;;;0.70;;
10122;SDS011;5101;49.038;8.710;2023-07-13T08:01:31;1.73;;;0.90;;
10122;SDS011;5101;49.038;8.710;2023-07-13T08:03:56;1.75;;;0.85;;
10122;SDS011;5101;49.038;8.710;2023-07-13T08:06:22;2.15;;;0.60;;
10122;SDS011;5101;49.038;8.710;2023-07-13T08:08:48;1.00;;;0.52;;
10122;SDS011;5101;49.038;8.710;2023-07-13T08:11:14;2.67;;;0.90;;
10122;SDS011;5101;49.038;8.710;2023-07-13T08:13:39;3.33;;;0.80;;
10122;SDS011;5101;49.038;8.710;2023-07-13T08:16:05;1.70;;;0.90;;
10122;SDS011;5101;49.038;8.710;2023-07-13T08:18:31;2.38;;;0.60;;
10122;SDS011;5101;49.038;8.710;2023-07-13T08:20:57;4.07;;;0.88;;
10122;SDS011;5101;49.038;8.710;2023-07-13T08:23:23;2.90;;;0.65;;
10122;SDS011;5101;49.038;8.710;2023-07-13T08:25:52;2.70;;;0.70;;
10122;SDS011;5101;49.038;8.710;2023-07-13T08:28:19;3.75;;;0.63;;
10122;SDS011;5101;49.038;8.710;2023-07-13T08:30:46;2.10;;;0.90;;
10122;SDS011;5101;49.038;8.710;2023-07-13T08:33:14;1.15;;;0.50;;
10122;SDS011;5101;49.038;8.710;2023-07-13T08:35:47;2.00;;;0.63;;
10122;SDS011;5101;49.038;8.710;2023-07-13T08:38:13;1.95;;;0.77;;
10122;SDS011;5101;49.038;8.710;2023-07-13T08:40:40;0.93;;;0.60;;
10122;SDS011;5101;49.038;8.710;2023-07-13T08:43:09;3.97;;;0.77;;
10122;SDS011;5101;49.038;8.710;2023-07-13T08:48:24;2.38;;;0.90;;
10122;SDS011;5101;49.038;8.710;2023-07-13T08:51:11;3.33;;;0.82;;
10122;SDS011;5101;49.038;8.710;2023-07-13T08:53:48;1.58;;;0.63;;
10122;SDS011;5101;49.038;8.710;2023-07-13T08:56:17;2.10;;;0.70;;
10122;SDS011;5101;49.038;8.710;2023-07-13T08:58:45;4.28;;;0.77;;
10122;SDS011;5101;49.038;8.710;2023-07-13T09:01:19;2.22;;;0.90;;
10122;SDS011;5101;49.038;8.710;2023-07-13T09:06:26;5.45;;;0.88;;
10122;SDS011;5101;49.038;8.710;2023-07-13T09:11:36;3.17;;;0.80;;
10122;SDS011;5101;49.038;8.710;2023-07-13T09:16:55;3.08;;;1.05;;
10122;SDS011;5101;49.038;8.710;2023-07-13T09:19:23;4.32;;;1.02;;
10122;SDS011;5101;49.038;8.710;2023-07-13T09:21:52;1.17;;;0.70;;
10122;SDS011;5101;49.038;8.710;2023-07-13T09:26:55;1.98;;;0.80;;
10122;SDS011;5101;49.038;8.710;2023-07-13T09:29:28;2.83;;;0.60;;
10122;SDS011;5101;49.038;8.710;2023-07-13T09:31:58;4.07;;;0.70;;
10122;SDS011;5101;49.038;8.710;2023-07-13T09:34:28;2.13;;;0.60;;
10122;SDS011;5101;49.038;8.710;2023-07-13T09:36:55;3.55;;;0.80;;
10122;SDS011;5101;49.038;8.710;2023-07-13T09:39:24;2.58;;;0.85;;
10122;SDS011;5101;49.038;8.710;2023-07-13T09:42:07;2.17;;;0.90;;
10122;SDS011;5101;49.038;8.710;2023-07-13T09:44:55;2.05;;;0.65;;
10122;SDS011;5101;49.038;8.710;2023-07-13T09:50:04;2.67;;;0.73;;
10122;SDS011;5101;49.038;8.710;2023-07-13T09:52:42;1.85;;;0.60;;
10122;SDS011;5101;49.038;8.710;2023-07-13T09:55:43;4.63;;;1.10;;
10122;SDS011;5101;49.038;8.710;2023-07-13T09:58:03;3.03;;;0.80;;
10122;SDS011;5101;49.038;8.710;2023-07-13T10:00:54;2.38;;;0.70;;
10122;SDS011;5101;49.038;8.710;2023-07-13T10:03:23;2.83;;;0.93;;
10122;SDS011;5101;49.038;8.710;2023-07-13T10:05:52;2.70;;;0.90;;
10122;SDS011;5101;49.038;8.710;2023-07-13T10:08:36;2.50;;;1.02;;
10122;SDS011;5101;49.038;8.710;2023-07-13T10:11:17;2.55;;;0.80;;
10122;SDS011;5101;49.038;8.710;2023-07-13T10:13:48;2.05;;;0.90;;
10122;SDS011;5101;49.038;8.710;2023-07-13T10:16:24;1.15;;;0.50;;
10122;SDS011;5101;49.038;8.710;2023-07-13T10:18:53;3.08;;;0.88;;
10122;SDS011;5101;49.038;8.710;2023-07-13T10:21:22;2.17;;;0.55;;
10122;SDS011;5101;49.038;8.710;2023-07-13T10:23:54;3.58;;;0.50;;
10122;SDS011;5101;49.038;8.710;2023-07-13T10:26:26;1.38;;;0.90;;
10122;SDS011;5101;49.038;8.710;2023-07-13T10:28:56;2.30;;;0.90;;
10122;SDS011;5101;49.038;8.710;2023-07-13T10:31:25;1.85;;;0.73;;
10122;SDS011;5101;49.038;8.710;2023-07-13T10:33:51;2.15;;;0.73;;
10122;SDS011;5101;49.038;8.710;2023-07-13T10:36:28;3.22;;;0.95;;
10122;SDS011;5101;49.038;8.710;2023-07-13T10:39:02;4.75;;;1.05;;
10122;SDS011;5101;49.038;8.710;2023-07-13T10:41:30;2.10;;;0.75;;
10122;SDS011;5101;49.038;8.710;2023-07-13T10:44:01;2.88;;;0.88;;
10122;SDS011;5101;49.038;8.710;2023-07-13T10:46:28;2.88;;;0.82;;
10122;SDS011;5101;49.038;8.710;2023-07-13T10:48:58;3.22;;;0.88;;
10122;SDS011;5101;49.038;8.710;2023-07-13T10:51:26;1.27;;;0.50;;
10122;SDS011;5101;49.038;8.710;2023-07-13T10:56:42;5.47;;;0.82;;
10122;SDS011;5101;49.038;8.710;2023-07-13T11:01:40;3.60;;;0.70;;
10122;SDS011;5101;49.038;8.710;2023-07-13T11:04:21;3.80;;;1.00;;
10122;SDS011;5101;49.038;8.710;2023-07-13T11:06:50;1.92;;;0.77;;
10122;SDS011;5101;49.038;8.710;2023-07-13T11:12:07;2.55;;;0.93;;
10122;SDS011;5101;49.038;8.710;2023-07-13T11:20:08;5.32;;;0.85;;
10122;SDS011;5101;49.038;8.710;2023-07-13T11:30:33;3.10;;;1.15;;
10122;SDS011;5101;49.038;8.710;2023-07-13T11:35:32;2.78;;;1.10;;
10122;SDS011;5101;49.038;8.710;2023-07-13T11:38:02;1.90;;;0.90;;
10122;SDS011;5101;49.038;8.710;2023-07-13T11:40:34;1.60;;;0.88;;
10122;SDS011;5101;49.038;8.710;2023-07-13T11:43:00;2.65;;;0.85;;
10122;SDS011;5101;49.038;8.710;2023-07-13T11:45:26;0.90;;;0.52;;
10122;SDS011;5101;49.038;8.710;2023-07-13T11:47:53;1.83;;;0.65;;
10122;SDS011;5101;49.038;8.710;2023-07-13T11:50:22;2.30;;;0.70;;
10122;SDS011;5101;49.038;8.710;2023-07-13T11:52:49;3.85;;;0.80;;
10122;SDS011;5101;49.038;8.710;2023-07-13T11:55:18;1.60;;;0.82;;
10122;SDS011;5101;49.038;8.710;2023-07-13T11:57:50;1.67;;;0.73;;
10122;SDS011;5101;49.038;8.710;2023-07-13T12:00:22;1.80;;;0.77;;
10122;SDS011;5101;49.038;8.710;2023-07-13T12:02:52;2.13;;;0.90;;
10122;SDS011;5101;49.038;8.710;2023-07-13T12:05:20;1.38;;;0.63;;
10122;SDS011;5101;49.038;8.710;2023-07-13T12:07:46;2.75;;;0.68;;
10122;SDS011;5101;49.038;8.710;2023-07-13T12:10:20;0.80;;;0.60;;
10122;SDS011;5101;49.038;8.710;2023-07-13T12:12:47;2.20;;;0.95;;
10122;SDS011;5101;49.038;8.710;2023-07-13T12:15:37;3.42;;;0.90;;
10122;SDS011;5101;49.038;8.710;2023-07-13T12:18:11;1.75;;;0.77;;
10122;SDS011;5101;49.038;8.710;2023-07-13T12:20:39;2.25;;;0.80;;
10122;SDS011;5101;49.038;8.710;2023-07-13T12:23:06;1.52;;;0.80;;
10122;SDS011;5101;49.038;8.710;2023-07-13T12:25:52;1.42;;;0.82;;
10122;SDS011;5101;49.038;8.710;2023-07-13T12:28:19;3.78;;;0.80;;
10122;SDS011;5101;49.038;8.710;2023-07-13T12:31:19;2.03;;;0.80;;
10122;SDS011;5101;49.038;8.710;2023-07-13T12:33:55;2.60;;;0.80;;
10122;SDS011;5101;49.038;8.710;2023-07-13T12:36:22;3.22;;;0.70;;
10122;SDS011;5101;49.038;8.710;2023-07-13T12:38:48;1.98;;;0.77;;
10122;SDS011;5101;49.038;8.710;2023-07-13T12:41:14;1.83;;;0.90;;
10122;SDS011;5101;49.038;8.710;2023-07-13T12:43:40;4.70;;;1.00;;
10122;SDS011;5101;49.038;8.710;2023-07-13T12:46:18;2.03;;;1.05;;
10122;SDS011;5101;49.038;8.710;2023-07-13T12:48:48;3.45;;;0.80;;
10122;SDS011;5101;49.038;8.710;2023-07-13T12:51:14;4.47;;;0.70;;
10122;SDS011;5101;49.038;8.710;2023-07-13T12:53:48;2.35;;;0.77;;
10122;SDS011;5101;49.038;8.710;2023-07-13T12:56:22;2.60;;;0.70;;
10122;SDS011;5101;49.038;8.710;2023-07-13T12:58:50;2.78;;;0.90;;
10122;SDS011;5101;49.038;8.710;2023-07-13T13:01:22;3.10;;;0.70;;
10122;SDS011;5101;49.038;8.710;2023-07-13T13:03:51;5.95;;;1.00;;
10122;SDS011;5101;49.038;8.710;2023-07-13T13:08:44;4.40;;;0.80;;
10122;SDS011;5101;49.038;8.710;2023-07-13T13:11:11;0.77;;;0.70;;
10122;SDS011;5101;49.038;8.710;2023-07-13T13:13:37;5.55;;;1.00;;
10122;SDS011;5101;49.038;8.710;2023-07-13T13:16:48;1.55;;;0.85;;
10122;SDS011;5101;49.038;8.710;2023-07-13T13:18:51;1.67;;;0.80;;
10122;SDS011;5101;49.038;8.710;2023-07-13T13:21:18;3.15;;;0.73;;
10122;SDS011;5101;49.038;8.710;2023-07-13T13:23:45;6.55;;;0.90;;
10122;SDS011;5101;49.038;8.710;2023-07-13T13:26:12;3.40;;;0.85;;
10122;SDS011;5101;49.038;8.710;2023-07-13T13:28:40;3.63;;;0.80;;
10122;SDS011;5101;49.038;8.710;2023-07-13T13:31:09;1.75;;;1.00;;
10122;SDS011;5101;49.038;8.710;2023-07-13T13:33:40;3.75;;;0.98;;
10122;SDS011;5101;49.038;8.710;2023-07-13T13:36:18;2.45;;;0.60;;
10122;SDS011;5101;49.038;8.710;2023-07-13T13:38:46;1.85;;;0.90;;
10122;SDS011;5101;49.038;8.710;2023-07-13T13:41:13;2.88;;;0.60;;
10122;SDS011;5101;49.038;8.710;2023-07-13T13:43:40;4.50;;;0.80;;
10122;SDS011;5101;49.038;8.710;2023-07-13T13:46:19;1.67;;;0.70;;
10122;SDS011;5101;49.038;8.710;2023-07-13T13:48:47;2.60;;;0.80;;
10122;SDS011;5101;49.038;8.710;2023-07-13T13:51:15;3.17;;;0.80;;
10122;SDS011;5101;49.038;8.710;2023-07-13T13:53:46;2.92;;;0.70;;
10122;SDS011;5101;49.038;8.710;2023-07-13T13:56:12;1.42;;;0.73;;
10122;SDS011;5101;49.038;8.710;2023-07-13T13:58:39;5.47;;;0.80;;
10122;SDS011;5101;49.038;8.710;2023-07-13T14:01:05;1.48;;;0.70;;
10122;SDS011;5101;49.038;8.710;2023-07-13T14:03:39;1.77;;;0.77;;
10122;SDS011;5101;49.038;8.710;2023-07-13T14:06:05;0.70;;;0.70;;
10122;SDS011;5101;49.038;8.710;2023-07-13T14:08:30;3.85;;;0.90;;
10122;SDS011;5101;49.038;8.710;2023-07-13T14:10:56;3.30;;;0.75;;
10122;SDS011;5101;49.038;8.710;2023-07-13T14:14:05;3.67;;;0.82;;
10122;SDS011;5101;49.038;8.710;2023-07-13T14:16:17;1.33;;;0.73;;
10122;SDS011;5101;49.038;8.710;2023-07-13T14:18:44;0.95;;;0.55;;
10122;SDS011;5101;49.038;8.710;2023-07-13T14:21:17;1.17;;;0.55;;
10122;SDS011;5101;49.038;8.710;2023-07-13T14:23:45;1.08;;;0.80;;
10122;SDS011;5101;49.038;8.710;2023-07-13T14:26:13;1.70;;;0.70;;
10122;SDS011;5101;49.038;8.710;2023-07-13T14:28:45;0.82;;;0.50;;
10122;SDS011;5101;49.038;8.710;2023-07-13T14:31:16;1.38;;;0.70;;
10122;SDS011;5101;49.038;8.710;2023-07-13T14:33:42;3.10;;;0.80;;
10122;SDS011;5101;49.038;8.710;2023-07-13T14:36:19;3.75;;;0.70;;
10122;SDS011;5101;49.038;8.710;2023-07-13T14:39:15;1.38;;;0.63;;
10122;SDS011;5101;49.038;8.710;2023-07-13T14:41:49;2.17;;;0.70;;
10122;SDS011;5101;49.038;8.710;2023-07-13T14:44:23;2.15;;;0.70;;
10122;SDS011;5101;49.038;8.710;2023-07-13T14:46:50;3.22;;;0.55;;
10122;SDS011;5101;49.038;8.710;2023-07-13T14:49:28;1.15;;;0.60;;
10122;SDS011;5101;49.038;8.710;2023-07-13T14:51:57;1.48;;;0.60;;
10122;SDS011;5101;49.038;8.710;2023-07-13T14:54:24;0.90;;;0.70;;
10122;SDS011;5101;49.038;8.710;2023-07-13T14:56:50;0.85;;;0.50;;
10122;SDS011;5101;49.038;8.710;2023-07-13T14:59:16;1.30;;;0.80;;
10122;SDS011;5101;49.038;8.710;2023-07-13T15:01:45;1.70;;;0.63;;
10122;SDS011;5101;49.038;8.710;2023-07-13T15:04:12;2.67;;;0.70;;
10122;SDS011;5101;49.038;8.710;2023-07-13T15:09:36;0.73;;;0.63;;
10122;SDS011;5101;49.038;8.710;2023-07-13T15:12:02;3.35;;;0.60;;
10122;SDS011;5101;49.038;8.710;2023-07-13T15:14:30;1.50;;;0.80;;
10122;SDS011;5101;49.038;8.710;2023-07-13T15:16:56;3.28;;;0.85;;
10122;SDS011;5101;49.038;8.710;2023-07-13T15:19:21;1.65;;;0.60;;
10122;SDS011;5101;49.038;8.710;2023-07-13T15:21:48;1.33;;;0.60;;
10122;SDS011;5101;49.038;8.710;2023-07-13T15:24:14;3.40;;;0.77;;
10122;SDS011;5101;49.038;8.710;2023-07-13T15:26:41;3.15;;;0.73;;
10122;SDS011;5101;49.038;8.710;2023-07-13T15:29:10;2.03;;;0.85;;
10122;SDS011;5101;49.038;8.710;2023-07-13T15:31:36;1.10;;;0.70;;
10122;SDS011;5101;49.038;8.710;2023-07-13T15:34:04;2.95;;;0.70;;
10122;SDS011;5101;49.038;8.710;2023-07-13T15:36:39;2.60;;;0.70;;
10122;SDS011;5101;49.038;8.710;2023-07-13T15:39:04;3.38;;;0.70;;
10122;SDS011;5101;49.038;8.710;2023-07-13T15:41:31;2.83;;;0.80;;
10122;SDS011;5101;49.038;8.710;2023-07-13T15:43:58;1.40;;;0.70;;
10122;SDS011;5101;49.038;8.710;2023-07-13T15:46:25;2.45;;;0.90;;
10122;SDS011;5101;49.038;8.710;2023-07-13T15:48:51;3.78;;;0.98;;
10122;SDS011;5101;49.038;8.710;2023-07-13T15:53:55;2.20;;;0.60;;
10122;SDS011;5101;49.038;8.710;2023-07-13T15:56:25;1.65;;;0.75;;